• Join FlightAware (Why Join?)
  • Login
  • US Flag 
09:45AM EDT


 

Airport Tracker/Info


-or-


 

Live Flight TrackerFlight Track Log ✈ RSP370 ✈ 14-May-2013 ✈ KSLC - KOAK

Flight Track Log - Related Links

Times and Time Zones

All times are in EDT time to prevent confusion due to time zone crossing. See the RSP370 flight status page for this flight to view local times or setup timezone preferences in your user account.

Time Position Orientation Groundspeed Altitude Reporting Facility
EDT Latitude Longitude Course Direction KTS MPH feet Rate Location/Type
06:10PM 40.8033 -111.9633 302° West 159 183 4,800  Level Salt Lake Center
06:11PM 40.8403 -112.0417 302° West 214 246 6,600 1,500 Climbing Salt Lake Center
06:12PM 40.8589 -112.1031 292° West 225 259 8,100 1,860 Climbing Salt Lake Center
06:13PM 40.8853 -112.1825 294° West 234 269 10,100 1,620 Climbing Salt Lake Center
06:14PM 40.8844 -112.2725 269° West 255 293 11,500 1,500 Climbing Salt Lake Center
06:15PM 40.8781 -112.3650 265° West 254 292 13,200 1,620 Climbing Salt Lake Center
06:16PM 40.8708 -112.4592 264° West 259 298 14,900 1,800 Climbing Salt Lake Center
06:17PM 40.8644 -112.5533 265° West 257 296 16,900 1,920 Climbing Salt Lake Center
06:18PM 40.8581 -112.6447 265° West 249 287 18,900 1,920 Climbing Salt Lake Center
06:19PM 40.8489 -112.7567 264° West 257 296 20,900 1,800 Climbing Salt Lake Center
06:20PM 40.8417 -112.8519 264° West 261 300 22,600 1,500 Climbing Salt Lake Center
06:21PM 40.8417 -112.9489 270° West 264 304 24,100 1,320 Climbing Salt Lake Center
06:22PM 40.8078 -113.0358 243° Southwest 270 311 25,400 1,260 Climbing Salt Lake Center
06:23PM 40.7728 -113.1247 243° Southwest 275 316 26,700 1,200 Climbing Salt Lake Center
06:24PM 40.7353 -113.2142 241° Southwest 280 322 28,000 1,260 Climbing Salt Lake Center
06:25PM 40.6986 -113.3044 242° Southwest 281 323 29,300 1,320 Climbing Salt Lake Center
06:26PM 40.6511 -113.4136 240° Southwest 285 328 30,800 1,320 Climbing Salt Lake Center
06:27PM 40.6122 -113.5058 241° Southwest 288 331 32,100 1,260 Climbing Salt Lake Center
06:28PM 40.5744 -113.5975 242° Southwest 285 328 33,400 900 Climbing Salt Lake Center
06:29PM 40.5364 -113.6881 241° Southwest 284 327 34,000 240 Climbing Salt Lake Center
06:30PM 40.4950 -113.7878 241° Southwest 308 354 34,000  Level Salt Lake Center
06:31PM 40.4492 -113.8939 240° Southwest 330 380 34,000  Level Salt Lake Center
06:32PM 40.4028 -114.0050 241° Southwest 344 396 34,000  Level Salt Lake Center
06:33PM 40.3442 -114.1400 240° Southwest 355 409 34,000  Level Salt Lake Center
06:34PM 40.2950 -114.2539 241° Southwest 359 413 34,000  Level Salt Lake Center
06:35PM 40.2458 -114.3689 241° Southwest 361 415 34,000  Level Salt Lake Center
06:36PM 40.1958 -114.4831 240° Southwest 360 414 34,000  Level Salt Lake Center
06:37PM 40.1472 -114.5956 241° Southwest 358 412 34,000  Level Salt Lake Center
06:38PM 40.1000 -114.7058 241° Southwest 351 404 34,000  Level Salt Lake Center
06:39PM 40.0442 -114.8306 240° Southwest 351 404 34,000  Level Salt Lake Center
06:40PM 39.9994 -114.9356 241° Southwest 348 400 34,000  Level Salt Lake Center
06:42PM 39.9456 -115.0564 240° Southwest 345 397 34,000  Level Salt Lake Center
06:43PM 39.8992 -115.1594 240° Southwest 344 396 34,000  Level Salt Lake Center
06:44PM 39.8536 -115.2639 240° Southwest 345 397 34,000  Level Salt Lake Center
06:45PM 39.7994 -115.3844 240° Southwest 346 398 34,000  Level Salt Lake Center
06:46PM 39.7514 -115.4894 239° Southwest 352 405 34,000  Level Salt Lake Center
06:47PM 39.6975 -115.6086 240° Southwest 342 394 34,000  Level Salt Lake Center
06:48PM 39.6525 -115.7103 240° Southwest 340 391 34,000  Level Salt Lake Center
06:49PM 39.6056 -115.8131 239° Southwest 344 396 34,000  Level Salt Lake Center
06:50PM 39.5519 -115.9311 240° Southwest 340 391 34,000  Level Salt Lake Center
06:51PM 39.5058 -116.0336 240° Southwest 342 394 34,000  Level Salt Lake Center
06:52PM 39.4517 -116.1517 239° Southwest 342 394 34,000  Level Salt Lake Center
06:53PM 39.4050 -116.2522 239° Southwest 340 391 34,000  Level Salt Lake Center
06:54PM 39.3589 -116.3542 240° Southwest 342 394 34,000  Level Salt Lake Center
06:55PM 39.3042 -116.4728 239° Southwest 343 395 34,000  Level Salt Lake Center
06:56PM 39.2569 -116.5728 239° Southwest 340 391 34,000  Level Salt Lake Center
06:57PM 39.2031 -116.6886 239° Southwest 337 388 34,000  Level Salt Lake Center
06:58PM 39.1567 -116.7892 239° Southwest 339 390 34,000  Level Salt Lake Center
06:59PM 39.1164 -116.8756 239° Southwest 343 395 34,000  Level Oakland Center
07:00PM 39.0675 -116.9786 239° Southwest 341 392 34,000  Level Oakland Center
07:01PM 39.0214 -117.0786 239° Southwest 343 395 34,000  Level Oakland Center
07:02PM 38.9717 -117.1828 238° Southwest 342 394 34,000  Level Oakland Center
07:03PM 38.9214 -117.2872 238° Southwest 343 395 34,000  Level Oakland Center
07:04PM 38.8717 -117.3969 240° Southwest 343 395 34,000  Level Oakland Center
07:05PM 38.8197 -117.5022 238° Southwest 349 402 34,000  Level Oakland Center
07:06PM 38.7603 -117.6278 239° Southwest 346 398 34,000  Level Oakland Center
07:07PM 38.7103 -117.7317 238° Southwest 345 397 34,000  Level Oakland Center
07:08PM 38.6597 -117.8364 238° Southwest 348 400 34,000  Level Oakland Center
07:09PM 38.6097 -117.9394 238° Southwest 344 396 34,000  Level Oakland Center
07:10PM 38.5592 -118.0431 238° Southwest 344 396 34,000  Level Oakland Center
07:11PM 38.5133 -118.1542 242° Southwest 347 399 34,000  Level Oakland Center
07:12PM 38.4681 -118.2636 242° Southwest 348 400 34,000  Level Oakland Center
07:13PM 38.4228 -118.3706 242° Southwest 342 394 34,000  Level Oakland Center
07:14PM 38.3767 -118.4764 241° Southwest 342 394 34,000  Level Oakland Center
07:15PM 38.3306 -118.5842 241° Southwest 345 397 34,000  Level Oakland Center
07:16PM 38.2847 -118.6914 241° Southwest 345 397 34,000  Level Oakland Center
07:17PM 38.2389 -118.7997 242° Southwest 346 398 34,000  Level Oakland Center
07:18PM 38.1819 -118.9303 241° Southwest 352 405 34,000  Level Oakland Center
07:19PM 38.1556 -119.0531 255° West 359 413 34,000  Level Oakland Center
07:20PM 38.1361 -119.1653 258° West 358 412 34,000  Level Oakland Center
07:21PM 38.1150 -119.2906 258° West 362 417 34,000  Level Oakland Center
07:22PM 38.0936 -119.4136 258° West 358 412 34,000 -300 Level Oakland Center
07:23PM 38.0714 -119.5400 257° West 365 420 33,400 -840 Descending Oakland Center
07:24PM 38.0481 -119.6692 257° West 372 428 32,400 -1,320 Descending Oakland Center
07:25PM 38.0222 -119.8117 257° West 348 400 30,800 -1,620 Descending Oakland Center
07:26PM 38.0044 -119.9186 258° West 317 365 29,200 -1,680 Descending Oakland Center
07:27PM 37.9836 -120.0236 256° West 308 354 27,500 -1,800 Descending Oakland Center
07:28PM 37.9661 -120.1250 258° West 298 343 25,600 -1,740 Descending Oakland Center
07:29PM 37.9472 -120.2242 256° West 292 336 24,000 -840 Descending Oakland Center
07:30PM 37.9278 -120.3333 257° West 309 356 24,000  Level Oakland Center
07:31PM 37.9064 -120.4533 257° West 336 387 24,000 -60 Level Oakland Center
07:32PM 37.8822 -120.5800 256° West 357 411 23,900 -660 Descending Oakland Center
07:33PM 37.8667 -120.6500 254° West 379 436 23,100 -1,620 Descending Northern Cal TRACON
07:34PM 37.8667 -120.7667 270° West 370 426 21,700 -1,440 Descending Northern Cal TRACON
07:35PM 37.8500 -120.8833 260° West 324 373 20,300 -1,020 Descending Northern Cal TRACON
07:36PM 37.8500 -121.0167 270° West 337 388 19,700 -1,320 Descending Northern Cal TRACON
07:37PM 37.8333 -121.1167 258° West 331 381 17,900 -1,980 Descending Northern Cal TRACON
07:38PM 37.8000 -121.2500 252° West 397 457 15,800 -1,860 Descending Northern Cal TRACON
07:39PM 37.7667 -121.3500 247° West 336 387 14,000 -1,800 Descending Northern Cal TRACON
07:40PM 37.7333 -121.4500 247° West 330 380 12,200 -1,860 Descending Northern Cal TRACON
07:41PM 37.7000 -121.5500 247° West 311 358 10,500 -1,800 Descending Northern Cal TRACON
07:42PM 37.6667 -121.6333 243° Southwest 284 327 8,800 -1,860 Descending Northern Cal TRACON
07:43PM 37.6667 -121.7333 270° West 279 321 6,600 -1,800 Descending Northern Cal TRACON
07:44PM 37.6833 -121.8333 282° West 266 306 5,100 -900 Descending Northern Cal TRACON
07:45PM 37.6894 -121.9006 277° West 267 307 5,000 -720 Descending Oakland Center
07:46PM 37.6900 -121.9847 271° West 257 296 3,800 -960 Descending Oakland Center
07:47PM 37.6881 -122.0483 268° West 224 258 3,100 -480 Descending Oakland Center
07:48PM 37.6775 -122.0953 254° West 210 242 2,900 -900 Descending Oakland Center
07:50PM 37.7167 -122.1833 299° West 112 129 500 -1,200 Descending Northern Cal TRACON
07:52PM 37.7167 -122.2167 270° West  Level FlightAware Approximate
07:59PM 37.7213 -122.2207 270° West  Level Estimated